Nearby METAR Reports

 

KCMH - Columbus, Ohio, USA
Distance from station: SW 5mi, 8km
Updated: Sun, 24-Mar-2019 2:51am EDT
Mostly cloudy
Mostly cloudy
 Wind from E
Wind: E 3 mph , 6 km/h
Temperature: 30°F , -1°C
Dew Point: 25°F , -4°C
Humidity: 80%
Barometer: 30.24 inHg , 1024 hPa
Clouds: Mostly cloudy
Visibility: 10 miles , 16 km
Cloud details: Mostly cloudy 25000 ft
2019/03/24 06:51 KCMH 240651Z 10003KT 10SM BKN250 M01/M04 A3024 RMK AO2 SLP246 T10061039
KOSU - Columbus/St Univ, Ohio, USA
Distance from station: W 14mi, 23km
Updated: Sun, 24-Mar-2019 2:53am EDT
Clear
Clear
 Wind from calm
Wind: Calm
Temperature: 32°F , 0°C
Dew Point: 21°F , -6°C
Humidity: 64%
Barometer: 30.24 inHg , 1024 hPa
Clouds: Clear
Visibility: 10 miles , 16 km
2019/03/24 06:53 KOSU 240653Z AUTO 00000KT 10SM CLR 00/M06 A3024 RMK AO2 SLP247 T00001061
 
KLCK - Rickenbacker Ang, Ohio, USA
Distance from station: SSW 17mi, 27km
Updated: Sun, 24-Mar-2019 2:35am EDT
Clear
Clear
 Wind from SE
Wind: SE 3 mph , 6 km/h
Temperature: 32°F , 0°C
Dew Point: 27°F , -3°C
Humidity: 80%
Barometer: 30.25 inHg , 1024.4 hPa
Clouds: Clear
Visibility: 10 miles , 16 km
2019/03/24 06:35 KLCK 240635Z AUTO 13003KT 10SM CLR 00/M03 A3025 RMK AO2 T10031033
KVTA - Newark, Ohio, USA
Distance from station: E 19mi, 30km
Updated: Sun, 24-Mar-2019 2:54am EDT
Clear
Clear
 Wind from calm
Wind: Calm
Temperature: 28°F , -2°C
Dew Point: 25°F , -4°C
Humidity: 86%
Barometer: 30.24 inHg , 1024 hPa
Clouds: Clear
Visibility: 10 miles , 16 km
2019/03/24 06:54 KVTA 240654Z AUTO 00000KT 10SM CLR M02/M04 A3024 RMK AO2 SLP247 T10171044
 
KTZR - Columbus/Bolton, Ohio, USA
Distance from station: WSW 20mi, 31km
Updated: Sun, 24-Mar-2019 2:55am EDT
Clear
Clear
 Wind from calm
Wind: Calm
Temperature: 34°F , 1°C
Dew Point: 19°F , -7°C
Humidity: 56%
Barometer: 30.24 inHg , 1024 hPa
Clouds: Clear
Visibility: 10 miles , 16 km
2019/03/24 06:55 KTZR 240655Z AUTO 00000KT 10SM CLR 01/M07 A3024 RMK AO2 T00121069
KLHQ - Lancaster, Ohio, USA
Distance from station: SSE 22mi, 36km
Updated: Sun, 24-Mar-2019 2:53am EDT
Clear
Clear
 Wind from S
Wind: S 3 mph , 6 km/h
Temperature: 28°F , -2°C
Dew Point: 25°F , -4°C
Humidity: 86%
Barometer: 30.25 inHg , 1024.4 hPa
Clouds: Clear
Visibility: 10 miles , 16 km
2019/03/24 06:53 KLHQ 240653Z AUTO 17003KT 10SM CLR M02/M04 A3025 RMK AO2 SLP250 T10221044
 
KDLZ - Delaware, Ohio, USA
Distance from station: NW 23mi, 36km
Updated: Sun, 24-Mar-2019 2:55am EDT
Partly cloudy
Partly cloudy
 Wind from calm
Wind: Calm
Temperature: 30°F , -1°C
Dew Point: 25°F , -4°C
Humidity: 80%
Barometer: 30.24 inHg , 1024 hPa
Clouds: Partly cloudy
Visibility: 10 miles , 16 km
Cloud details: Partly cloudy 11000 ft
2019/03/24 06:55 KDLZ 240655Z AUTO 00000KT 10SM SCT110 M01/M04 A3024 RMK AO2
K4I3 - Mt Vernon/Knox, Ohio, USA
Distance from station: NE 25mi, 40km
Updated: Sun, 24-Mar-2019 2:55am EDT
Clear
Clear
 Wind from WSW
Wind: WSW 3 mph , 6 km/h
Temperature: 32°F , 0°C
Dew Point: 19°F , -7°C
Humidity: 60%
Barometer: 30.25 inHg , 1024.4 hPa
Clouds: Clear
Visibility: 10 miles , 16 km
2019/03/24 06:55 K4I3 240655Z AUTO 25003KT 10SM CLR 00/M07 A3025 RMK AO2
 
KMRT - Marysville, Ohio, USA
Distance from station: WNW 30mi, 49km
Updated: Sun, 24-Mar-2019 2:55am EDT
Clear
Clear
 Wind from calm
Wind: Calm
Temperature: 30°F , -1°C
Dew Point: 25°F , -4°C
Humidity: 80%
Barometer: 30.24 inHg , 1024 hPa
Clouds: Clear
Visibility: 10 miles , 16 km
2019/03/24 06:55 KMRT 240655Z AUTO 00000KT 10SM CLR M01/M04 A3024 RMK AO2 T10111042
KMNN - Marion, Ohio, USA
Distance from station: NNW 41mi, 67km
Updated: Sun, 24-Mar-2019 2:53am EDT

 
Barometer: 30.23 inHg , 1023.7 hPa
2019/03/24 06:53 KMNN 240653Z AUTO A3023 RMK AO2 SLPNO PWINO FZRANO $
 
KZZV - Zanesville, Ohio, USA
Distance from station: E 49mi, 79km
Updated: Sun, 24-Mar-2019 2:53am EDT
Clear
Clear
 Wind from calm
Wind: Calm
Temperature: 28°F , -2°C
Dew Point: 21°F , -6°C
Humidity: 74%
Barometer: 30.25 inHg , 1024.4 hPa
Clouds: Clear
Visibility: 10 miles , 16 km
2019/03/24 06:53 KZZV 240653Z AUTO 00000KT 10SM CLR M02/M06 A3025 RMK AO2 SLP250 T10221061